sensor_id;sensor_type;location;lat;lon;timestamp;temperature;humidity
57026;DHT22;43961;52.940;6.834;2022-07-29T02:48:36;13.50;99.90
57026;DHT22;43961;52.940;6.834;2022-07-29T02:51:13;13.40;99.90
57026;DHT22;43961;52.940;6.834;2022-07-29T02:53:43;13.50;99.90
57026;DHT22;43961;52.940;6.834;2022-07-29T02:56:13;13.50;99.90
57026;DHT22;43961;52.940;6.834;2022-07-29T02:58:49;13.50;99.90
57026;DHT22;43961;52.940;6.834;2022-07-29T03:01:31;13.50;99.90
57026;DHT22;43961;52.940;6.834;2022-07-29T03:04:03;13.50;99.90
57026;DHT22;43961;52.940;6.834;2022-07-29T03:06:30;13.50;99.90
57026;DHT22;43961;52.940;6.834;2022-07-29T03:08:57;13.60;99.90
57026;DHT22;43961;52.940;6.834;2022-07-29T03:11:24;13.60;99.90
57026;DHT22;43961;52.940;6.834;2022-07-29T03:13:51;13.60;99.90
57026;DHT22;43961;52.940;6.834;2022-07-29T03:16:19;13.50;99.90
57026;DHT22;43961;52.940;6.834;2022-07-29T03:18:45;13.50;99.90
57026;DHT22;43961;52.940;6.834;2022-07-29T03:21:11;13.50;99.90
57026;DHT22;43961;52.940;6.834;2022-07-29T03:23:43;13.60;99.90
57026;DHT22;43961;52.940;6.834;2022-07-29T03:26:11;13.60;99.90
57026;DHT22;43961;52.940;6.834;2022-07-29T03:28:37;13.50;99.90
57026;DHT22;43961;52.940;6.834;2022-07-29T03:31:03;13.50;99.90
57026;DHT22;43961;52.940;6.834;2022-07-29T03:33:28;13.50;99.90
57026;DHT22;43961;52.940;6.834;2022-07-29T03:35:56;13.50;99.90
57026;DHT22;43961;52.940;6.834;2022-07-29T03:38:25;13.50;99.90
57026;DHT22;43961;52.940;6.834;2022-07-29T03:40:56;13.50;99.90
57026;DHT22;43961;52.940;6.834;2022-07-29T03:43:23;13.50;99.90
57026;DHT22;43961;52.940;6.834;2022-07-29T03:45:51;13.50;99.90
57026;DHT22;43961;52.940;6.834;2022-07-29T03:48:20;13.50;99.90
57026;DHT22;43961;52.940;6.834;2022-07-29T03:50:48;13.50;99.90
57026;DHT22;43961;52.940;6.834;2022-07-29T03:53:14;13.50;99.90
57026;DHT22;43961;52.940;6.834;2022-07-29T03:55:50;13.50;99.90
57026;DHT22;43961;52.940;6.834;2022-07-29T03:58:18;13.50;99.90
57026;DHT22;43961;52.940;6.834;2022-07-29T04:00:46;13.50;99.90
57026;DHT22;43961;52.940;6.834;2022-07-29T04:03:12;13.50;99.90
57026;DHT22;43961;52.940;6.834;2022-07-29T04:05:38;13.50;99.90
57026;DHT22;43961;52.940;6.834;2022-07-29T04:08:05;13.50;99.90
57026;DHT22;43961;52.940;6.834;2022-07-29T04:10:31;13.50;99.90
57026;DHT22;43961;52.940;6.834;2022-07-29T04:12:57;13.50;99.90
57026;DHT22;43961;52.940;6.834;2022-07-29T04:15:23;13.50;99.90
57026;DHT22;43961;52.940;6.834;2022-07-29T04:17:48;13.50;99.90
57026;DHT22;43961;52.940;6.834;2022-07-29T04:20:14;13.50;99.90
57026;DHT22;43961;52.940;6.834;2022-07-29T04:22:40;13.50;99.90
57026;DHT22;43961;52.940;6.834;2022-07-29T04:25:06;13.50;99.90
57026;DHT22;43961;52.940;6.834;2022-07-29T04:27:32;13.50;99.90
57026;DHT22;43961;52.940;6.834;2022-07-29T04:29:58;13.50;99.90
57026;DHT22;43961;52.940;6.834;2022-07-29T04:32:25;13.50;99.90
57026;DHT22;43961;52.940;6.834;2022-07-29T04:34:51;13.50;99.90
57026;DHT22;43961;52.940;6.834;2022-07-29T04:37:16;13.50;99.90
57026;DHT22;43961;52.940;6.834;2022-07-29T04:39:42;13.60;99.90
57026;DHT22;43961;52.940;6.834;2022-07-29T04:42:08;13.60;99.90
57026;DHT22;43961;52.940;6.834;2022-07-29T04:44:34;13.60;99.90
57026;DHT22;43961;52.940;6.834;2022-07-29T04:46:59;13.60;99.90
57026;DHT22;43961;52.940;6.834;2022-07-29T04:49:25;13.60;99.90
57026;DHT22;43961;52.940;6.834;2022-07-29T04:51:51;13.60;99.90
57026;DHT22;43961;52.940;6.834;2022-07-29T04:54:17;13.60;99.90
57026;DHT22;43961;52.940;6.834;2022-07-29T04:56:43;13.60;99.90
57026;DHT22;43961;52.940;6.834;2022-07-29T04:59:08;13.70;99.90
57026;DHT22;43961;52.940;6.834;2022-07-29T05:01:34;13.70;99.90
57026;DHT22;43961;52.940;6.834;2022-07-29T05:04:00;13.70;99.90
57026;DHT22;43961;52.940;6.834;2022-07-29T05:06:26;13.70;99.90
57026;DHT22;43961;52.940;6.834;2022-07-29T05:08:52;13.80;99.90
57026;DHT22;43961;52.940;6.834;2022-07-29T05:11:18;13.80;99.90
57026;DHT22;43961;52.940;6.834;2022-07-29T05:13:43;13.80;99.90
57026;DHT22;43961;52.940;6.834;2022-07-29T05:16:09;13.90;99.90
57026;DHT22;43961;52.940;6.834;2022-07-29T05:18:35;13.90;99.90
57026;DHT22;43961;52.940;6.834;2022-07-29T05:21:00;14.00;99.90
57026;DHT22;43961;52.940;6.834;2022-07-29T05:23:26;14.00;99.90
57026;DHT22;43961;52.940;6.834;2022-07-29T05:25:52;14.00;99.90
57026;DHT22;43961;52.940;6.834;2022-07-29T05:28:19;14.00;99.90
57026;DHT22;43961;52.940;6.834;2022-07-29T05:30:45;14.10;99.90
57026;DHT22;43961;52.940;6.834;2022-07-29T05:33:10;14.10;99.90
57026;DHT22;43961;52.940;6.834;2022-07-29T05:35:36;14.10;99.90
57026;DHT22;43961;52.940;6.834;2022-07-29T05:38:03;14.20;99.90
57026;DHT22;43961;52.940;6.834;2022-07-29T05:40:29;14.20;99.90
57026;DHT22;43961;52.940;6.834;2022-07-29T05:42:55;14.20;99.90
57026;DHT22;43961;52.940;6.834;2022-07-29T05:45:21;14.20;99.90
57026;DHT22;43961;52.940;6.834;2022-07-29T05:47:47;14.30;99.90
57026;DHT22;43961;52.940;6.834;2022-07-29T05:50:12;14.30;99.90
57026;DHT22;43961;52.940;6.834;2022-07-29T05:52:39;14.30;99.90
57026;DHT22;43961;52.940;6.834;2022-07-29T05:55:05;14.40;99.90
57026;DHT22;43961;52.940;6.834;2022-07-29T05:57:31;14.40;99.90
57026;DHT22;43961;52.940;6.834;2022-07-29T05:59:57;14.40;99.90
57026;DHT22;43961;52.940;6.834;2022-07-29T06:02:23;14.40;99.90
57026;DHT22;43961;52.940;6.834;2022-07-29T06:04:49;14.50;99.90
57026;DHT22;43961;52.940;6.834;2022-07-29T06:07:15;14.50;99.90
57026;DHT22;43961;52.940;6.834;2022-07-29T06:09:42;14.50;99.90
57026;DHT22;43961;52.940;6.834;2022-07-29T06:12:08;14.50;99.90
57026;DHT22;43961;52.940;6.834;2022-07-29T06:14:35;14.60;99.90
57026;DHT22;43961;52.940;6.834;2022-07-29T06:17:01;14.60;99.90
57026;DHT22;43961;52.940;6.834;2022-07-29T06:19:39;14.60;99.90
57026;DHT22;43961;52.940;6.834;2022-07-29T06:22:21;14.70;99.90
57026;DHT22;43961;52.940;6.834;2022-07-29T06:25:12;14.80;99.90
57026;DHT22;43961;52.940;6.834;2022-07-29T06:27:39;14.90;99.90
57026;DHT22;43961;52.940;6.834;2022-07-29T06:30:05;14.90;99.90
57026;DHT22;43961;52.940;6.834;2022-07-29T06:32:33;15.00;99.90
57026;DHT22;43961;52.940;6.834;2022-07-29T06:34:59;15.10;99.90
57026;DHT22;43961;52.940;6.834;2022-07-29T06:37:24;15.10;99.90
57026;DHT22;43961;52.940;6.834;2022-07-29T06:39:50;15.20;99.90
57026;DHT22;43961;52.940;6.834;2022-07-29T06:42:42;15.20;99.90
57026;DHT22;43961;52.940;6.834;2022-07-29T06:45:09;15.20;99.90
57026;DHT22;43961;52.940;6.834;2022-07-29T06:47:35;15.20;99.90
57026;DHT22;43961;52.940;6.834;2022-07-29T06:50:01;15.20;99.90
57026;DHT22;43961;52.940;6.834;2022-07-29T06:52:26;15.30;99.90
57026;DHT22;43961;52.940;6.834;2022-07-29T06:54:52;15.30;99.90
57026;DHT22;43961;52.940;6.834;2022-07-29T06:57:18;15.30;99.90
57026;DHT22;43961;52.940;6.834;2022-07-29T06:59:45;15.40;99.90
57026;DHT22;43961;52.940;6.834;2022-07-29T07:02:11;15.40;99.90
57026;DHT22;43961;52.940;6.834;2022-07-29T07:04:36;15.40;99.90
57026;DHT22;43961;52.940;6.834;2022-07-29T07:07:03;15.40;99.90
57026;DHT22;43961;52.940;6.834;2022-07-29T07:09:28;15.40;99.90
57026;DHT22;43961;52.940;6.834;2022-07-29T07:11:54;15.40;99.90
57026;DHT22;43961;52.940;6.834;2022-07-29T07:14:20;15.40;99.90
57026;DHT22;43961;52.940;6.834;2022-07-29T07:16:45;15.50;99.90
57026;DHT22;43961;52.940;6.834;2022-07-29T07:19:11;15.50;99.90
57026;DHT22;43961;52.940;6.834;2022-07-29T07:21:37;15.60;99.90
57026;DHT22;43961;52.940;6.834;2022-07-29T07:24:03;15.70;99.90
57026;DHT22;43961;52.940;6.834;2022-07-29T07:26:29;15.70;99.90
57026;DHT22;43961;52.940;6.834;2022-07-29T07:28:55;15.70;99.90
57026;DHT22;43961;52.940;6.834;2022-07-29T07:31:20;15.80;99.90
57026;DHT22;43961;52.940;6.834;2022-07-29T07:33:46;15.80;99.90
57026;DHT22;43961;52.940;6.834;2022-07-29T07:36:12;15.90;99.90
57026;DHT22;43961;52.940;6.834;2022-07-29T07:38:38;16.00;99.90
57026;DHT22;43961;52.940;6.834;2022-07-29T07:41:03;16.10;99.90
57026;DHT22;43961;52.940;6.834;2022-07-29T07:43:29;16.10;99.90
57026;DHT22;43961;52.940;6.834;2022-07-29T07:45:55;16.20;99.90
57026;DHT22;43961;52.940;6.834;2022-07-29T07:48:20;16.20;99.90
57026;DHT22;43961;52.940;6.834;2022-07-29T07:50:46;16.40;99.90
57026;DHT22;43961;52.940;6.834;2022-07-29T07:53:12;16.50;99.90
57026;DHT22;43961;52.940;6.834;2022-07-29T07:55:42;16.60;99.90
57026;DHT22;43961;52.940;6.834;2022-07-29T07:58:09;16.80;99.90
57026;DHT22;43961;52.940;6.834;2022-07-29T08:00:35;16.90;99.90
57026;DHT22;43961;52.940;6.834;2022-07-29T08:03:01;17.00;99.90
57026;DHT22;43961;52.940;6.834;2022-07-29T08:05:27;17.20;99.90
57026;DHT22;43961;52.940;6.834;2022-07-29T08:07:55;17.30;99.90
57026;DHT22;43961;52.940;6.834;2022-07-29T08:10:21;17.40;99.90
57026;DHT22;43961;52.940;6.834;2022-07-29T08:13:07;17.50;99.90
57026;DHT22;43961;52.940;6.834;2022-07-29T08:15:33;17.60;99.90
57026;DHT22;43961;52.940;6.834;2022-07-29T08:17:59;17.70;99.90
57026;DHT22;43961;52.940;6.834;2022-07-29T08:20:25;17.70;99.90
57026;DHT22;43961;52.940;6.834;2022-07-29T08:22:52;17.70;99.90
57026;DHT22;43961;52.940;6.834;2022-07-29T08:25:19;17.70;99.90
57026;DHT22;43961;52.940;6.834;2022-07-29T08:27:47;17.60;99.90
57026;DHT22;43961;52.940;6.834;2022-07-29T08:30:14;17.60;99.90
57026;DHT22;43961;52.940;6.834;2022-07-29T08:32:40;17.60;99.90
57026;DHT22;43961;52.940;6.834;2022-07-29T08:35:06;17.50;99.90
57026;DHT22;43961;52.940;6.834;2022-07-29T08:37:31;17.60;99.90
57026;DHT22;43961;52.940;6.834;2022-07-29T08:39:57;17.50;99.90
57026;DHT22;43961;52.940;6.834;2022-07-29T08:42:23;17.60;99.90
57026;DHT22;43961;52.940;6.834;2022-07-29T08:44:49;17.60;99.90
57026;DHT22;43961;52.940;6.834;2022-07-29T08:47:16;17.50;99.90
57026;DHT22;43961;52.940;6.834;2022-07-29T08:49:42;17.60;99.90
57026;DHT22;43961;52.940;6.834;2022-07-29T08:52:11;17.60;99.90
57026;DHT22;43961;52.940;6.834;2022-07-29T08:54:39;17.60;99.90
57026;DHT22;43961;52.940;6.834;2022-07-29T08:57:09;17.60;99.90
57026;DHT22;43961;52.940;6.834;2022-07-29T08:59:37;17.70;99.90
57026;DHT22;43961;52.940;6.834;2022-07-29T09:02:06;17.80;99.90
57026;DHT22;43961;52.940;6.834;2022-07-29T09:04:36;17.90;99.90
57026;DHT22;43961;52.940;6.834;2022-07-29T09:07:03;18.00;99.90
57026;DHT22;43961;52.940;6.834;2022-07-29T09:09:29;18.10;99.90
57026;DHT22;43961;52.940;6.834;2022-07-29T09:11:55;18.20;99.90
57026;DHT22;43961;52.940;6.834;2022-07-29T09:14:21;18.30;99.90
57026;DHT22;43961;52.940;6.834;2022-07-29T09:16:56;18.40;99.90
57026;DHT22;43961;52.940;6.834;2022-07-29T09:19:29;18.50;99.90
57026;DHT22;43961;52.940;6.834;2022-07-29T09:21:56;18.60;99.90
57026;DHT22;43961;52.940;6.834;2022-07-29T09:27:00;18.90;99.90
57026;DHT22;43961;52.940;6.834;2022-07-29T09:29:27;18.90;99.90
57026;DHT22;43961;52.940;6.834;2022-07-29T09:31:54;19.00;99.90
57026;DHT22;43961;52.940;6.834;2022-07-29T09:34:28;19.10;99.90
57026;DHT22;43961;52.940;6.834;2022-07-29T09:36:55;19.10;99.90
57026;DHT22;43961;52.940;6.834;2022-07-29T09:39:38;19.20;99.90
57026;DHT22;43961;52.940;6.834;2022-07-29T09:42:37;19.20;99.90
57026;DHT22;43961;52.940;6.834;2022-07-29T09:45:29;19.10;99.90
57026;DHT22;43961;52.940;6.834;2022-07-29T09:47:55;19.20;99.90
57026;DHT22;43961;52.940;6.834;2022-07-29T09:50:22;19.20;99.90
57026;DHT22;43961;52.940;6.834;2022-07-29T09:52:59;19.30;99.90
57026;DHT22;43961;52.940;6.834;2022-07-29T09:55:25;19.30;99.90
57026;DHT22;43961;52.940;6.834;2022-07-29T09:57:51;19.30;99.90
57026;DHT22;43961;52.940;6.834;2022-07-29T10:00:18;19.40;99.90
57026;DHT22;43961;52.940;6.834;2022-07-29T10:02:46;19.40;99.90
57026;DHT22;43961;52.940;6.834;2022-07-29T10:05:19;19.50;99.90
57026;DHT22;43961;52.940;6.834;2022-07-29T10:07:51;19.60;99.90
57026;DHT22;43961;52.940;6.834;2022-07-29T10:12:57;19.80;99.90
57026;DHT22;43961;52.940;6.834;2022-07-29T10:15:24;19.90;99.90
57026;DHT22;43961;52.940;6.834;2022-07-29T10:17:52;20.10;99.90
57026;DHT22;43961;52.940;6.834;2022-07-29T10:20:18;20.20;99.90
57026;DHT22;43961;52.940;6.834;2022-07-29T10:22:44;20.20;99.90
57026;DHT22;43961;52.940;6.834;2022-07-29T10:25:12;20.40;99.90
57026;DHT22;43961;52.940;6.834;2022-07-29T10:27:39;20.40;99.90
57026;DHT22;43961;52.940;6.834;2022-07-29T10:30:05;20.40;99.90
57026;DHT22;43961;52.940;6.834;2022-07-29T10:35:33;20.40;99.90
57026;DHT22;43961;52.940;6.834;2022-07-29T10:41:02;20.50;99.90
57026;DHT22;43961;52.940;6.834;2022-07-29T10:43:50;20.50;99.90
57026;DHT22;43961;52.940;6.834;2022-07-29T10:46:17;20.40;99.90
57026;DHT22;43961;52.940;6.834;2022-07-29T10:49:18;20.40;99.90
57026;DHT22;43961;52.940;6.834;2022-07-29T10:52:18;20.20;99.90
57026;DHT22;43961;52.940;6.834;2022-07-29T10:54:47;20.20;99.90
57026;DHT22;43961;52.940;6.834;2022-07-29T11:00:35;20.00;99.90
57026;DHT22;43961;52.940;6.834;2022-07-29T11:07:32;19.90;99.90
57026;DHT22;43961;52.940;6.834;2022-07-29T11:15:07;19.90;99.90
57026;DHT22;43961;52.940;6.834;2022-07-29T11:23:30;19.90;99.90
57026;DHT22;43961;52.940;6.834;2022-07-29T11:26:18;19.90;99.90
57026;DHT22;43961;52.940;6.834;2022-07-29T11:37:20;19.90;99.90
57026;DHT22;43961;52.940;6.834;2022-07-29T11:45:01;20.00;99.90
57026;DHT22;43961;52.940;6.834;2022-07-29T11:47:28;20.00;99.90
57026;DHT22;43961;52.940;6.834;2022-07-29T11:49:59;20.10;99.90
57026;DHT22;43961;52.940;6.834;2022-07-29T11:52:36;20.10;99.90
57026;DHT22;43961;52.940;6.834;2022-07-29T11:55:10;20.20;99.90
57026;DHT22;43961;52.940;6.834;2022-07-29T11:57:36;20.30;99.90
57026;DHT22;43961;52.940;6.834;2022-07-29T12:00:04;20.30;99.90
57026;DHT22;43961;52.940;6.834;2022-07-29T12:02:43;20.40;99.90
57026;DHT22;43961;52.940;6.834;2022-07-29T12:05:10;20.50;99.90
57026;DHT22;43961;52.940;6.834;2022-07-29T12:07:39;20.60;99.90
57026;DHT22;43961;52.940;6.834;2022-07-29T12:10:06;20.60;99.90
57026;DHT22;43961;52.940;6.834;2022-07-29T12:12:32;20.70;99.90
57026;DHT22;43961;52.940;6.834;2022-07-29T12:15:17;20.70;99.90
57026;DHT22;43961;52.940;6.834;2022-07-29T12:17:45;20.90;99.90
57026;DHT22;43961;52.940;6.834;2022-07-29T12:20:11;21.10;99.90
57026;DHT22;43961;52.940;6.834;2022-07-29T12:22:41;21.20;99.90
57026;DHT22;43961;52.940;6.834;2022-07-29T12:25:13;21.30;99.90
57026;DHT22;43961;52.940;6.834;2022-07-29T12:27:44;21.40;99.90
57026;DHT22;43961;52.940;6.834;2022-07-29T12:30:15;21.50;99.90
57026;DHT22;43961;52.940;6.834;2022-07-29T12:32:44;21.60;99.90
57026;DHT22;43961;52.940;6.834;2022-07-29T12:35:15;21.60;99.90
57026;DHT22;43961;52.940;6.834;2022-07-29T12:37:44;21.60;99.90
57026;DHT22;43961;52.940;6.834;2022-07-29T12:40:10;21.60;99.90
57026;DHT22;43961;52.940;6.834;2022-07-29T12:42:36;21.60;99.90
57026;DHT22;43961;52.940;6.834;2022-07-29T12:45:03;21.60;99.90
57026;DHT22;43961;52.940;6.834;2022-07-29T12:47:29;21.60;99.90
57026;DHT22;43961;52.940;6.834;2022-07-29T12:50:14;21.60;99.90
57026;DHT22;43961;52.940;6.834;2022-07-29T12:52:44;21.70;99.90
57026;DHT22;43961;52.940;6.834;2022-07-29T12:55:10;21.70;99.90
57026;DHT22;43961;52.940;6.834;2022-07-29T12:57:51;21.80;99.90
57026;DHT22;43961;52.940;6.834;2022-07-29T13:03:53;21.80;99.90
57026;DHT22;43961;52.940;6.834;2022-07-29T13:06:44;21.80;99.90
57026;DHT22;43961;52.940;6.834;2022-07-29T13:09:18;21.80;99.90
57026;DHT22;43961;52.940;6.834;2022-07-29T13:11:49;21.80;99.90
57026;DHT22;43961;52.940;6.834;2022-07-29T13:14:33;21.70;99.90
57026;DHT22;43961;52.940;6.834;2022-07-29T13:21:59;22.20;99.90
57026;DHT22;43961;52.940;6.834;2022-07-29T13:24:24;22.40;99.90
57026;DHT22;43961;52.940;6.834;2022-07-29T13:26:50;22.70;99.90
57026;DHT22;43961;52.940;6.834;2022-07-29T13:29:17;22.70;99.90
57026;DHT22;43961;52.940;6.834;2022-07-29T13:31:43;22.70;99.90
57026;DHT22;43961;52.940;6.834;2022-07-29T13:34:09;22.70;99.90
57026;DHT22;43961;52.940;6.834;2022-07-29T13:36:34;22.60;99.90
57026;DHT22;43961;52.940;6.834;2022-07-29T13:39:00;22.50;99.90
57026;DHT22;43961;52.940;6.834;2022-07-29T13:41:28;22.50;99.90
57026;DHT22;43961;52.940;6.834;2022-07-29T13:43:54;22.50;99.90
57026;DHT22;43961;52.940;6.834;2022-07-29T13:46:19;22.50;99.90
57026;DHT22;43961;52.940;6.834;2022-07-29T13:48:45;22.50;99.90
57026;DHT22;43961;52.940;6.834;2022-07-29T13:51:11;22.40;99.90
57026;DHT22;43961;52.940;6.834;2022-07-29T13:53:37;22.40;99.90
57026;DHT22;43961;52.940;6.834;2022-07-29T13:56:03;22.30;99.90
57026;DHT22;43961;52.940;6.834;2022-07-29T13:58:32;22.40;99.90
57026;DHT22;43961;52.940;6.834;2022-07-29T14:00:59;22.50;99.90
57026;DHT22;43961;52.940;6.834;2022-07-29T14:03:25;22.70;99.90
57026;DHT22;43961;52.940;6.834;2022-07-29T14:05:51;22.60;99.90
57026;DHT22;43961;52.940;6.834;2022-07-29T14:08:17;22.60;99.90
57026;DHT22;43961;52.940;6.834;2022-07-29T14:10:43;22.70;99.90
57026;DHT22;43961;52.940;6.834;2022-07-29T14:13:09;22.70;99.90
57026;DHT22;43961;52.940;6.834;2022-07-29T14:15:35;22.80;99.90
57026;DHT22;43961;52.940;6.834;2022-07-29T14:18:01;22.80;99.90
57026;DHT22;43961;52.940;6.834;2022-07-29T14:20:27;22.70;99.90
57026;DHT22;43961;52.940;6.834;2022-07-29T14:22:55;22.70;99.90
57026;DHT22;43961;52.940;6.834;2022-07-29T14:25:22;22.70;99.90
57026;DHT22;43961;52.940;6.834;2022-07-29T14:27:48;22.70;99.90
57026;DHT22;43961;52.940;6.834;2022-07-29T14:30:14;22.70;99.90
57026;DHT22;43961;52.940;6.834;2022-07-29T14:32:40;22.70;99.90
57026;DHT22;43961;52.940;6.834;2022-07-29T14:35:06;22.70;99.90
57026;DHT22;43961;52.940;6.834;2022-07-29T14:37:32;22.60;99.90
57026;DHT22;43961;52.940;6.834;2022-07-29T14:39:58;22.70;99.90
57026;DHT22;43961;52.940;6.834;2022-07-29T14:42:27;22.60;99.90
57026;DHT22;43961;52.940;6.834;2022-07-29T14:44:52;22.70;99.90
57026;DHT22;43961;52.940;6.834;2022-07-29T14:47:19;22.60;99.90
57026;DHT22;43961;52.940;6.834;2022-07-29T14:49:44;22.60;99.90
57026;DHT22;43961;52.940;6.834;2022-07-29T14:52:10;22.60;99.90
57026;DHT22;43961;52.940;6.834;2022-07-29T14:54:36;22.60;99.90
57026;DHT22;43961;52.940;6.834;2022-07-29T14:57:02;22.60;99.70
57026;DHT22;43961;52.940;6.834;2022-07-29T14:59:29;22.60;99.90
57026;DHT22;43961;52.940;6.834;2022-07-29T15:01:55;22.70;99.90
57026;DHT22;43961;52.940;6.834;2022-07-29T15:04:21;22.80;99.80
57026;DHT22;43961;52.940;6.834;2022-07-29T15:06:47;22.90;96.80
57026;DHT22;43961;52.940;6.834;2022-07-29T15:09:13;22.90;96.80
57026;DHT22;43961;52.940;6.834;2022-07-29T15:11:38;22.90;96.20
57026;DHT22;43961;52.940;6.834;2022-07-29T15:14:05;23.00;95.30
57026;DHT22;43961;52.940;6.834;2022-07-29T15:16:31;23.00;95.00
57026;DHT22;43961;52.940;6.834;2022-07-29T15:18:57;23.10;96.00
57026;DHT22;43961;52.940;6.834;2022-07-29T15:21:23;23.20;93.20
57026;DHT22;43961;52.940;6.834;2022-07-29T15:23:49;23.10;93.00
57026;DHT22;43961;52.940;6.834;2022-07-29T15:26:15;23.10;93.30
57026;DHT22;43961;52.940;6.834;2022-07-29T15:28:41;23.20;92.40
57026;DHT22;43961;52.940;6.834;2022-07-29T15:31:07;23.20;91.30
57026;DHT22;43961;52.940;6.834;2022-07-29T15:33:32;23.10;90.70
57026;DHT22;43961;52.940;6.834;2022-07-29T15:35:58;23.10;87.90
57026;DHT22;43961;52.940;6.834;2022-07-29T15:38:24;23.10;92.80
57026;DHT22;43961;52.940;6.834;2022-07-29T15:40:49;22.90;93.50
57026;DHT22;43961;52.940;6.834;2022-07-29T15:43:15;22.90;91.10
57026;DHT22;43961;52.940;6.834;2022-07-29T15:45:42;22.80;90.40
57026;DHT22;43961;52.940;6.834;2022-07-29T15:48:28;22.70;94.70
57026;DHT22;43961;52.940;6.834;2022-07-29T15:50:53;22.80;96.20
57026;DHT22;43961;52.940;6.834;2022-07-29T15:53:19;22.60;92.90
57026;DHT22;43961;52.940;6.834;2022-07-29T15:55:45;22.60;93.90
57026;DHT22;43961;52.940;6.834;2022-07-29T15:58:10;22.60;92.80
57026;DHT22;43961;52.940;6.834;2022-07-29T16:00:36;22.50;94.00
57026;DHT22;43961;52.940;6.834;2022-07-29T16:03:02;22.60;92.60
57026;DHT22;43961;52.940;6.834;2022-07-29T16:05:27;22.70;91.00
57026;DHT22;43961;52.940;6.834;2022-07-29T16:07:54;22.80;91.10
57026;DHT22;43961;52.940;6.834;2022-07-29T16:10:20;22.80;89.90
57026;DHT22;43961;52.940;6.834;2022-07-29T16:12:45;22.90;90.10
57026;DHT22;43961;52.940;6.834;2022-07-29T16:15:11;22.90;92.60
57026;DHT22;43961;52.940;6.834;2022-07-29T16:17:38;23.00;93.70
57026;DHT22;43961;52.940;6.834;2022-07-29T16:20:04;23.00;91.40
57026;DHT22;43961;52.940;6.834;2022-07-29T16:22:45;22.90;92.10
57026;DHT22;43961;52.940;6.834;2022-07-29T16:25:10;23.10;92.30
57026;DHT22;43961;52.940;6.834;2022-07-29T16:27:36;23.00;91.90
57026;DHT22;43961;52.940;6.834;2022-07-29T16:30:03;23.10;91.60
57026;DHT22;43961;52.940;6.834;2022-07-29T16:32:29;23.10;93.30
57026;DHT22;43961;52.940;6.834;2022-07-29T16:34:55;23.10;91.90
57026;DHT22;43961;52.940;6.834;2022-07-29T16:37:20;23.10;92.10
57026;DHT22;43961;52.940;6.834;2022-07-29T16:39:46;23.10;94.00
57026;DHT22;43961;52.940;6.834;2022-07-29T16:42:12;23.10;92.70
57026;DHT22;43961;52.940;6.834;2022-07-29T16:44:37;23.00;93.20
57026;DHT22;43961;52.940;6.834;2022-07-29T16:47:03;23.10;94.30
57026;DHT22;43961;52.940;6.834;2022-07-29T16:49:29;22.90;92.80
57026;DHT22;43961;52.940;6.834;2022-07-29T16:51:55;22.90;92.50
57026;DHT22;43961;52.940;6.834;2022-07-29T16:54:21;22.80;93.00
57026;DHT22;43961;52.940;6.834;2022-07-29T16:56:46;22.80;92.90
57026;DHT22;43961;52.940;6.834;2022-07-29T16:59:12;22.70;95.00
57026;DHT22;43961;52.940;6.834;2022-07-29T17:01:38;22.70;93.40
57026;DHT22;43961;52.940;6.834;2022-07-29T17:04:03;22.70;95.10
57026;DHT22;43961;52.940;6.834;2022-07-29T17:06:38;22.80;95.60
57026;DHT22;43961;52.940;6.834;2022-07-29T17:09:05;22.70;97.80
57026;DHT22;43961;52.940;6.834;2022-07-29T17:11:32;22.70;97.30
57026;DHT22;43961;52.940;6.834;2022-07-29T17:13:58;22.70;97.60
57026;DHT22;43961;52.940;6.834;2022-07-29T17:16:25;22.70;99.90
57026;DHT22;43961;52.940;6.834;2022-07-29T17:18:55;22.70;98.40
57026;DHT22;43961;52.940;6.834;2022-07-29T17:21:22;22.60;99.70
57026;DHT22;43961;52.940;6.834;2022-07-29T17:23:49;22.60;99.90
57026;DHT22;43961;52.940;6.834;2022-07-29T17:26:16;22.70;99.90
57026;DHT22;43961;52.940;6.834;2022-07-29T17:28:41;22.60;99.90
57026;DHT22;43961;52.940;6.834;2022-07-29T17:31:07;22.70;99.90
57026;DHT22;43961;52.940;6.834;2022-07-29T17:33:34;22.70;99.90
57026;DHT22;43961;52.940;6.834;2022-07-29T17:36:00;22.60;99.90
57026;DHT22;43961;52.940;6.834;2022-07-29T17:38:45;22.60;99.90
57026;DHT22;43961;52.940;6.834;2022-07-29T17:41:11;22.50;99.90
57026;DHT22;43961;52.940;6.834;2022-07-29T17:43:37;22.50;99.90
57026;DHT22;43961;52.940;6.834;2022-07-29T17:46:02;22.50;99.90
57026;DHT22;43961;52.940;6.834;2022-07-29T17:48:28;22.50;99.90
57026;DHT22;43961;52.940;6.834;2022-07-29T17:50:55;22.40;99.90
57026;DHT22;43961;52.940;6.834;2022-07-29T17:53:20;22.40;99.90
57026;DHT22;43961;52.940;6.834;2022-07-29T17:55:47;22.40;99.90
57026;DHT22;43961;52.940;6.834;2022-07-29T17:58:13;22.40;99.90
57026;DHT22;43961;52.940;6.834;2022-07-29T18:00:39;22.40;99.90
57026;DHT22;43961;52.940;6.834;2022-07-29T18:03:05;22.30;99.90
57026;DHT22;43961;52.940;6.834;2022-07-29T18:05:31;22.30;99.90
57026;DHT22;43961;52.940;6.834;2022-07-29T18:07:57;22.30;99.90
57026;DHT22;43961;52.940;6.834;2022-07-29T18:10:23;22.30;99.90
57026;DHT22;43961;52.940;6.834;2022-07-29T18:12:49;22.20;99.90
57026;DHT22;43961;52.940;6.834;2022-07-29T18:15:16;22.20;99.90
57026;DHT22;43961;52.940;6.834;2022-07-29T18:17:42;22.10;99.90
57026;DHT22;43961;52.940;6.834;2022-07-29T18:20:08;22.10;99.90
57026;DHT22;43961;52.940;6.834;2022-07-29T18:22:34;22.10;99.90
57026;DHT22;43961;52.940;6.834;2022-07-29T18:24:59;22.10;99.90
57026;DHT22;43961;52.940;6.834;2022-07-29T18:27:25;22.00;99.90
57026;DHT22;43961;52.940;6.834;2022-07-29T18:29:54;22.00;99.90
57026;DHT22;43961;52.940;6.834;2022-07-29T18:32:20;22.00;99.90
57026;DHT22;43961;52.940;6.834;2022-07-29T18:34:47;21.90;99.90
57026;DHT22;43961;52.940;6.834;2022-07-29T18:37:13;21.90;99.90
57026;DHT22;43961;52.940;6.834;2022-07-29T18:39:39;21.90;99.90
57026;DHT22;43961;52.940;6.834;2022-07-29T18:42:04;21.90;99.90
57026;DHT22;43961;52.940;6.834;2022-07-29T18:44:30;21.80;99.90
57026;DHT22;43961;52.940;6.834;2022-07-29T18:46:57;21.70;99.90
57026;DHT22;43961;52.940;6.834;2022-07-29T18:49:23;21.70;99.90
57026;DHT22;43961;52.940;6.834;2022-07-29T18:51:49;21.60;99.90
57026;DHT22;43961;52.940;6.834;2022-07-29T18:54:15;21.60;99.90
57026;DHT22;43961;52.940;6.834;2022-07-29T18:56:45;21.50;99.90
57026;DHT22;43961;52.940;6.834;2022-07-29T18:59:11;21.50;99.90
57026;DHT22;43961;52.940;6.834;2022-07-29T19:01:42;21.40;99.90
57026;DHT22;43961;52.940;6.834;2022-07-29T19:04:08;21.30;99.90
57026;DHT22;43961;52.940;6.834;2022-07-29T19:06:34;21.30;99.90
57026;DHT22;43961;52.940;6.834;2022-07-29T19:09:00;21.10;99.90
57026;DHT22;43961;52.940;6.834;2022-07-29T19:11:26;21.10;99.90
57026;DHT22;43961;52.940;6.834;2022-07-29T19:13:54;21.00;99.90